Flight Track Log - Related Links

Times and Time Zones

All times are in EDT time to prevent confusion due to time zone crossing. See the SKW5619 flight status page for this flight to view local times or setup timezone preferences in your user account.

Time Position Orientation Groundspeed Altitude Reporting Facility
EDT Latitude Longitude Course Direction KTS MPH feet Rate Location/Type
Sat 09:31:18 PM 39.8769 -104.6094 13° North 153 176 6,500  Level Denver Center
Sat 09:32:19 PM 39.8892 -104.5286 79° East 218 251 8,100 1,475 Climbing Denver Center
Sat 09:33:20 PM 39.9128 -104.4350 72° East 273 314 9,500 1,475 Climbing Denver Center
Sat 09:34:00 PM 40.2462 -105.0375 348° North  Level Estimated
Sat 09:34:21 PM 39.9736 -104.3831 33° Northeast 310 357 11,100  Level Denver Center
Sat 09:35:00 PM 40.3421 -105.1292 346° North  Level Estimated
Sat 09:35:34 PM 40.0750 -104.3967 354° North 327 376 13,300  Level Denver Center
Sat 09:36:00 PM 40.4580 -105.0950 13° North  Level FlightAware Approximate
Sat 09:36:36 PM 40.1642 -104.4822 324° Northwest 324 373 15,900  Level Denver Center
Sat 09:37:37 PM 40.2447 -104.5583 324° Northwest 332 382 17,900 1,721 Climbing Denver Center
Sat 09:38:38 PM 40.3242 -104.6239 328° Northwest 340 391 19,400 1,426 Climbing Denver Center
Sat 09:39:39 PM 40.4183 -104.6708 339° North 357 411 20,800 1,317 Climbing Denver Center
Sat 09:40:41 PM 40.5119 -104.7164 340° North 359 413 22,100 1,171 Climbing Denver Center
Sat 09:41:42 PM 40.6167 -104.7689 339° North 373 429 23,200 1,030 Climbing Denver Center
Sat 09:42:55 PM 40.7225 -104.8208 340° North 374 430 24,400 1,075 Climbing Denver Center
Sat 09:43:56 PM 40.8439 -104.8783 340° North 382 440 25,600 885 Climbing Denver Center
Sat 09:44:57 PM 40.9492 -104.9283 340° North 397 457 26,200 780 Climbing Denver Center
Sat 09:45:59 PM 41.0572 -104.9836 339° North 410 472 27,200 927 Climbing Denver Center
Sat 09:47:00 PM 41.1592 -105.0333 340° North 409 471 28,100 836 Climbing Denver Center
Sat 09:48:01 PM 41.2617 -105.0825 340° North 410 472 28,900 787 Climbing Denver Center
Sat 09:49:02 PM 41.3806 -105.1419 339° North 408 470 29,700 738 Climbing Denver Center
Sat 09:50:03 PM 41.4842 -105.1956 339° North 414 476 30,400 689 Climbing Denver Center
Sat 09:51:04 PM 41.5928 -105.2778 330° Northwest 413 475 31,100 541 Climbing Denver Center
Sat 09:52:05 PM 41.6686 -105.3778 315° West 402 463 31,500 393 Climbing Denver Center
Sat 09:53:06 PM 41.7447 -105.4825 314° West 406 467 31,900 246 Climbing Denver Center
Sat 09:54:07 PM 41.8350 -105.6053 315° West 412 474 32,000 49 Climbing Denver Center
Sat 09:55:08 PM 41.9125 -105.7136 314° West 417 480 32,000  Level Denver Center
Sat 09:56:09 PM 41.9931 -105.8231 315° West 425 489 32,000  Level Denver Center
Sat 09:57:10 PM 42.0847 -105.9525 314° West 428 493 32,000  Level Denver Center
Sat 09:58:11 PM 42.1639 -106.0636 314° West 429 494 32,000  Level Denver Center
Sat 09:59:12 PM 42.2439 -106.1764 314° West 433 498 32,000  Level Denver Center
Sat 10:00:13 PM 42.3375 -106.3072 314° West 432 497 32,000  Level Denver Center
Sat 10:01:14 PM 42.4169 -106.4208 313° West 434 499 32,000  Level Denver Center
Sat 10:02:15 PM 42.4975 -106.5344 314° West 435 501 32,000  Level Denver Center
Sat 10:03:16 PM 42.5897 -106.6683 313° West 434 499 32,000  Level Denver Center
Sat 10:04:17 PM 42.6692 -106.7814 314° West 434 499 32,000  Level Denver Center
Sat 10:05:18 PM 42.7478 -106.8969 313° West 434 499 32,000  Level Denver Center
Sat 10:06:19 PM 42.8417 -107.0281 314° West 433 498 32,000  Level Denver Center
Sat 10:06:51 PM 42.8861 -107.0769 321° Northwest 433 498 32,000  Level Salt Lake Center
Sat 10:07:52 PM 42.9836 -107.1944 319° Northwest 439 505 32,000  Level Salt Lake Center
Sat 10:08:53 PM 43.0747 -107.3044 319° Northwest 436 502 32,000  Level Salt Lake Center
Sat 10:09:54 PM 43.1664 -107.4167 318° Northwest 441 507 32,000  Level Salt Lake Center
Sat 10:10:55 PM 43.2586 -107.5297 318° Northwest 444 511 32,000  Level Salt Lake Center
Sat 10:11:57 PM 43.3517 -107.6422 319° Northwest 445 512 32,000  Level Salt Lake Center
Sat 10:12:58 PM 43.4450 -107.7564 318° Northwest 448 516 32,000  Level Salt Lake Center
Sat 10:13:59 PM 43.5394 -107.8733 318° Northwest 454 522 32,000  Level Salt Lake Center
Sat 10:15:00 PM 43.6333 -107.9886 318° Northwest 454 522 32,000  Level Salt Lake Center
Sat 10:16:01 PM 43.7258 -108.1047 318° Northwest 449 517 32,000  Level Salt Lake Center
Sat 10:17:02 PM 43.8194 -108.2197 318° Northwest 449 517 32,000  Level Salt Lake Center
Sat 10:18:04 PM 43.9308 -108.3589 318° Northwest 450 518 32,000  Level Salt Lake Center
Sat 10:19:05 PM 44.0228 -108.4761 318° Northwest 449 517 32,000  Level Salt Lake Center
Sat 10:20:06 PM 44.1164 -108.5928 318° Northwest 450 518 32,000  Level Salt Lake Center
Sat 10:21:07 PM 44.2092 -108.7108 318° Northwest 450 518 32,000  Level Salt Lake Center
Sat 10:22:08 PM 44.3011 -108.8278 318° Northwest 448 516 32,000  Level Salt Lake Center
Sat 10:23:09 PM 44.3933 -108.9453 318° Northwest 447 514 32,000  Level Salt Lake Center
Sat 10:24:11 PM 44.4844 -109.0633 317° Northwest 446 513 32,000  Level Salt Lake Center
Sat 10:25:12 PM 44.5750 -109.1797 318° Northwest 442 509 32,000  Level Salt Lake Center
Sat 10:26:13 PM 44.6661 -109.2981 317° Northwest 446 513 32,000  Level Salt Lake Center
Sat 10:27:14 PM 44.7572 -109.4178 317° Northwest 447 514 32,000  Level Salt Lake Center
Sat 10:28:15 PM 44.8497 -109.5369 318° Northwest 450 518 32,000  Level Salt Lake Center
Sat 10:29:16 PM 44.9406 -109.6586 317° Northwest 451 519 32,000  Level Salt Lake Center
Sat 10:30:17 PM 45.0319 -109.7778 317° Northwest 450 518 32,000  Level Salt Lake Center
Sat 10:31:19 PM 45.1406 -109.9219 317° Northwest 447 514 32,000  Level Salt Lake Center
Sat 10:32:20 PM 45.2317 -110.0433 317° Northwest 449 517 32,000  Level Salt Lake Center
Sat 10:33:22 PM 45.3211 -110.1650 316° Northwest 447 514 32,000  Level Salt Lake Center
Sat 10:34:22 PM 45.4125 -110.2872 317° Northwest 451 519 32,000  Level Salt Lake Center
Sat 10:35:23 PM 45.5044 -110.4108 317° Northwest 455 524 32,000 -246 Level Salt Lake Center
Sat 10:36:24 PM 45.6019 -110.5281 320° Northwest 458 527 31,500 -1,082 Descending Salt Lake Center
Sat 10:37:25 PM 45.7125 -110.6531 322° Northwest 464 534 29,800 -2,195 Descending Salt Lake Center
Sat 10:38:27 PM 45.8117 -110.7697 321° Northwest 456 525 27,000 -2,732 Descending Salt Lake Center
Sat 10:39:28 PM 45.9053 -110.8814 320° Northwest 435 501 24,200 -2,852 Descending Salt Lake Center
Sat 10:40:29 PM 45.9958 -110.9906 320° Northwest 420 483 21,200 -2,902 Descending Salt Lake Center
Sat 10:41:30 PM 46.0825 -111.0953 320° Northwest 402 463 18,300 -2,852 Descending Salt Lake Center
Sat 10:42:31 PM 46.1636 -111.1928 320° Northwest 377 434 15,400 -2,115 Descending Salt Lake Center
Sat 10:43:32 PM 46.2392 -111.2828 321° Northwest 350 403 14,000 -689 Descending Salt Lake Center
Sat 10:44:33 PM 46.3058 -111.3656 319° Northwest 316 364 14,000 -492 Level Salt Lake Center
Sat 10:45:34 PM 46.3750 -111.4506 320° Northwest 320 368 13,000 -984 Descending Salt Lake Center
Sat 10:47:00 PM 46.4783 -111.6216 302° West  Level FlightAware Approximate
Sat 10:54:00 PM 46.6000 -111.9667 North  Level FlightAware Approximate

Login

Don't have an account? Register now (free) for customized features, flight alerts, and more!